ACA856 CYQB-CYYZ
Flight info
| Callsign | ACA856 |
|---|---|
| Flight time | 1h 10m |
| Altitude | 34000 |
| Route | IMORI DCT UDBAM DCT DICEN Q848 LETAK IMEBA9 |
| Aircraft | MD82/M-SDFGIJ1RWY/S |
Departure
| Time | 2026-05-04 19:53 |
|---|---|
| Airport | Quebec Jean Lesage International Airport (CYQB) |
Arrival
| Time | 2026-05-04 21:04 |
|---|---|
| Airport | Toronto Pearson International Airport (CYYZ) |
| Time | Latitude | Longitude | Altitude | Speed | Heading |
|---|---|---|---|---|---|
| 2026-05-04 19:34 | 46.79351 | -71.38406 | 235 ft | 0 kts | 134° |
| 2026-05-04 19:47 | 46.79362 | -71.38422 | 244 ft | 2 kts | 134° |
| 2026-05-04 19:48 | 46.79373 | -71.38439 | 244 ft | 2 kts | 134° |
| 2026-05-04 19:48 | 46.79384 | -71.38456 | 244 ft | 2 kts | 134° |
| 2026-05-04 19:48 | 46.79386 | -71.38475 | 244 ft | 2 kts | 34° |
| 2026-05-04 19:48 | 46.79383 | -71.38478 | 244 ft | 0 kts | 34° |
| 2026-05-04 19:51 | 46.79420 | -71.38447 | 244 ft | 9 kts | 29° |
| 2026-05-04 19:51 | 46.79495 | -71.38363 | 244 ft | 19 kts | 41° |
| 2026-05-04 19:51 | 46.79602 | -71.38258 | 244 ft | 19 kts | 40° |
| 2026-05-04 19:51 | 46.79692 | -71.38131 | 244 ft | 16 kts | 44° |
| 2026-05-04 19:52 | 46.79775 | -71.38047 | 244 ft | 14 kts | 6° |
| 2026-05-04 19:52 | 46.79874 | -71.38046 | 244 ft | 14 kts | 359° |
| 2026-05-04 19:52 | 46.79951 | -71.38108 | 246 ft | 12 kts | 296° |
| 2026-05-04 19:52 | 46.79930 | -71.38208 | 246 ft | 11 kts | 225° |
| 2026-05-04 19:53 | 46.79811 | -71.38380 | 245 ft | 49 kts | 225° |
| 2026-05-04 19:53 | 46.79404 | -71.38965 | 248 ft | 114 kts | 225° |
| 2026-05-04 19:53 | 46.78709 | -71.39946 | 361 ft | 155 kts | 224° |
| 2026-05-04 19:53 | 46.77928 | -71.41012 | 1174 ft | 152 kts | 225° |
| 2026-05-04 19:54 | 46.77169 | -71.42123 | 1910 ft | 158 kts | 228° |
| 2026-05-04 19:54 | 46.76457 | -71.43398 | 2479 ft | 167 kts | 244° |
| 2026-05-04 19:54 | 46.75953 | -71.44964 | 3070 ft | 178 kts | 249° |
| 2026-05-04 19:54 | 46.75444 | -71.46781 | 3383 ft | 207 kts | 250° |
| 2026-05-04 19:55 | 46.74888 | -71.48837 | 3781 ft | 229 kts | 250° |
| 2026-05-04 19:55 | 46.74265 | -71.51075 | 4228 ft | 248 kts | 249° |
| 2026-05-04 19:55 | 46.73572 | -71.53440 | 5085 ft | 253 kts | 249° |
| 2026-05-04 19:55 | 46.72864 | -71.55760 | 6225 ft | 250 kts | 249° |
| 2026-05-04 19:56 | 46.72147 | -71.58038 | 7170 ft | 252 kts | 248° |
| 2026-05-04 19:56 | 46.71402 | -71.60363 | 8100 ft | 254 kts | 248° |
| 2026-05-04 19:56 | 46.70764 | -71.62757 | 8978 ft | 253 kts | 264° |
| 2026-05-04 19:56 | 46.70874 | -71.65295 | 9839 ft | 253 kts | 282° |
| 2026-05-04 19:57 | 46.71255 | -71.67807 | 10614 ft | 255 kts | 283° |
| 2026-05-04 19:57 | 46.71649 | -71.70409 | 10954 ft | 274 kts | 283° |
| 2026-05-04 19:57 | 46.72085 | -71.73239 | 11127 ft | 297 kts | 283° |
| 2026-05-04 19:57 | 46.72565 | -71.76269 | 11358 ft | 317 kts | 283° |
| 2026-05-04 19:58 | 46.73061 | -71.79442 | 11973 ft | 323 kts | 283° |
| 2026-05-04 19:58 | 46.73543 | -71.82646 | 12876 ft | 323 kts | 283° |
| 2026-05-04 19:58 | 46.74010 | -71.85844 | 13741 ft | 323 kts | 283° |
| 2026-05-04 19:58 | 46.74465 | -71.89024 | 14463 ft | 325 kts | 283° |
| 2026-05-04 19:59 | 46.74920 | -71.92249 | 15223 ft | 325 kts | 283° |
| 2026-05-04 19:59 | 46.75374 | -71.95485 | 15940 ft | 327 kts | 284° |
| 2026-05-04 19:59 | 46.75835 | -71.98755 | 16636 ft | 329 kts | 284° |
| 2026-05-04 19:59 | 46.76297 | -72.02035 | 17314 ft | 331 kts | 284° |
| 2026-05-04 20:00 | 46.76755 | -72.05347 | 17979 ft | 334 kts | 284° |
| 2026-05-04 20:00 | 46.77213 | -72.08681 | 18564 ft | 336 kts | 285° |
| 2026-05-04 20:00 | 46.77674 | -72.12037 | 19081 ft | 339 kts | 285° |
| 2026-05-04 20:00 | 46.78139 | -72.15390 | 19531 ft | 344 kts | 285° |
| 2026-05-04 20:01 | 46.78618 | -72.18825 | 20055 ft | 347 kts | 285° |
| 2026-05-04 20:01 | 46.79101 | -72.22293 | 20554 ft | 350 kts | 285° |
| 2026-05-04 20:01 | 46.79589 | -72.25797 | 21024 ft | 354 kts | 285° |
| 2026-05-04 20:01 | 46.79689 | -72.29430 | 21490 ft | 369 kts | 266° |
| 2026-05-04 20:02 | 46.78869 | -72.33069 | 21942 ft | 386 kts | 253° |
| 2026-05-04 20:02 | 46.77684 | -72.36622 | 22387 ft | 392 kts | 251° |
| 2026-05-04 20:02 | 46.76446 | -72.40194 | 22783 ft | 397 kts | 251° |
| 2026-05-04 20:02 | 46.75187 | -72.43796 | 23237 ft | 401 kts | 251° |
| 2026-05-04 20:03 | 46.74328 | -72.46249 | 23506 ft | 403 kts | 251° |
| 2026-05-04 20:03 | 46.73061 | -72.49903 | 23918 ft | 404 kts | 251° |
| 2026-05-04 20:03 | 46.71811 | -72.53573 | 24359 ft | 405 kts | 252° |
| 2026-05-04 20:03 | 46.70574 | -72.57267 | 24797 ft | 406 kts | 252° |
| 2026-05-04 20:04 | 46.69361 | -72.60938 | 25187 ft | 408 kts | 252° |
| 2026-05-04 20:04 | 46.68131 | -72.64683 | 25564 ft | 410 kts | 252° |
| 2026-05-04 20:04 | 46.66900 | -72.68440 | 25957 ft | 412 kts | 252° |
| 2026-05-04 20:04 | 46.65659 | -72.72218 | 26356 ft | 414 kts | 252° |
| 2026-05-04 20:05 | 46.64408 | -72.76015 | 26765 ft | 416 kts | 252° |
| 2026-05-04 20:05 | 46.63151 | -72.79823 | 27099 ft | 419 kts | 252° |
| 2026-05-04 20:05 | 46.61885 | -72.83650 | 27490 ft | 421 kts | 252° |
| 2026-05-04 20:05 | 46.60603 | -72.87498 | 27869 ft | 423 kts | 252° |
| 2026-05-04 20:06 | 46.59303 | -72.91350 | 28236 ft | 424 kts | 251° |
| 2026-05-04 20:06 | 46.58011 | -72.95159 | 28575 ft | 427 kts | 251° |
| 2026-05-04 20:06 | 46.56696 | -72.99042 | 28937 ft | 428 kts | 251° |
| 2026-05-04 20:06 | 46.55381 | -73.02922 | 29416 ft | 426 kts | 252° |
| 2026-05-04 20:07 | 46.54075 | -73.06774 | 29952 ft | 423 kts | 252° |
| 2026-05-04 20:07 | 46.52781 | -73.10607 | 30399 ft | 420 kts | 252° |
| 2026-05-04 20:07 | 46.51499 | -73.14413 | 30842 ft | 418 kts | 251° |
| 2026-05-04 20:07 | 46.50227 | -73.18192 | 31223 ft | 416 kts | 251° |
| 2026-05-04 20:08 | 46.48959 | -73.21958 | 31590 ft | 414 kts | 251° |
| 2026-05-04 20:08 | 46.47697 | -73.25701 | 31976 ft | 412 kts | 251° |
| 2026-05-04 20:08 | 46.46437 | -73.29430 | 32377 ft | 410 kts | 251° |
| 2026-05-04 20:08 | 46.45185 | -73.33125 | 32765 ft | 408 kts | 251° |
| 2026-05-04 20:09 | 46.43939 | -73.36803 | 33141 ft | 405 kts | 251° |
| 2026-05-04 20:09 | 46.42695 | -73.40466 | 33473 ft | 405 kts | 250° |
| 2026-05-04 20:09 | 46.41439 | -73.44128 | 33617 ft | 407 kts | 250° |
| 2026-05-04 20:10 | 46.38914 | -73.51433 | 33691 ft | 407 kts | 250° |
| 2026-05-04 20:10 | 46.36383 | -73.58742 | 33716 ft | 405 kts | 250° |
| 2026-05-04 20:11 | 46.33874 | -73.66014 | 33711 ft | 403 kts | 251° |
| 2026-05-04 20:11 | 46.31373 | -73.73273 | 33713 ft | 403 kts | 251° |
| 2026-05-04 20:12 | 46.28869 | -73.80545 | 33713 ft | 405 kts | 251° |
| 2026-05-04 20:12 | 46.26350 | -73.87833 | 33709 ft | 406 kts | 251° |
| 2026-05-04 20:13 | 46.23835 | -73.95114 | 33710 ft | 405 kts | 251° |
| 2026-05-04 20:13 | 46.21295 | -74.02379 | 33715 ft | 405 kts | 250° |
| 2026-05-04 20:14 | 46.18719 | -74.09620 | 33712 ft | 406 kts | 250° |
| 2026-05-04 20:14 | 46.16152 | -74.16875 | 33705 ft | 406 kts | 250° |
| 2026-05-04 20:15 | 46.13607 | -74.24101 | 33703 ft | 407 kts | 250° |
| 2026-05-04 20:15 | 46.11046 | -74.31374 | 33695 ft | 407 kts | 250° |
| 2026-05-04 20:16 | 46.08480 | -74.38659 | 33691 ft | 408 kts | 250° |
| 2026-05-04 20:16 | 46.05908 | -74.45950 | 33708 ft | 409 kts | 250° |
| 2026-05-04 20:17 | 46.03323 | -74.53241 | 33698 ft | 408 kts | 250° |
| 2026-05-04 20:17 | 46.00706 | -74.60492 | 33696 ft | 408 kts | 250° |
| 2026-05-04 20:18 | 45.98106 | -74.67721 | 33698 ft | 409 kts | 250° |
| 2026-05-04 20:18 | 45.95497 | -74.74998 | 33693 ft | 410 kts | 250° |
| 2026-05-04 20:19 | 45.92882 | -74.82282 | 33691 ft | 410 kts | 250° |
| 2026-05-04 20:19 | 45.90266 | -74.89573 | 33695 ft | 411 kts | 250° |
| 2026-05-04 20:20 | 45.87633 | -74.96862 | 33689 ft | 411 kts | 250° |
| 2026-05-04 20:20 | 45.84978 | -75.04122 | 33691 ft | 410 kts | 250° |
| 2026-05-04 20:21 | 45.82327 | -75.11369 | 33688 ft | 409 kts | 250° |
| 2026-05-04 20:21 | 45.78373 | -75.22207 | 33692 ft | 409 kts | 250° |
| 2026-05-04 20:22 | 45.75756 | -75.29377 | 33681 ft | 409 kts | 250° |
| 2026-05-04 20:22 | 45.73117 | -75.36590 | 33668 ft | 408 kts | 250° |
| 2026-05-04 20:23 | 45.70484 | -75.43778 | 33666 ft | 408 kts | 250° |
| 2026-05-04 20:23 | 45.67836 | -75.50957 | 33658 ft | 408 kts | 250° |
| 2026-05-04 20:24 | 45.65161 | -75.58119 | 33658 ft | 409 kts | 250° |
| 2026-05-04 20:24 | 45.62486 | -75.65289 | 33655 ft | 409 kts | 250° |
| 2026-05-04 20:25 | 45.59817 | -75.72456 | 33651 ft | 408 kts | 250° |
| 2026-05-04 20:25 | 45.57152 | -75.79613 | 33669 ft | 407 kts | 250° |
| 2026-05-04 20:26 | 45.54495 | -75.86735 | 33665 ft | 407 kts | 249° |
| 2026-05-04 20:26 | 45.51856 | -75.93808 | 33668 ft | 406 kts | 250° |
| 2026-05-04 20:27 | 45.49191 | -76.00898 | 33664 ft | 405 kts | 249° |
| 2026-05-04 20:27 | 45.46488 | -76.07957 | 33670 ft | 406 kts | 249° |
| 2026-05-04 20:28 | 45.43810 | -76.15036 | 33670 ft | 406 kts | 249° |
| 2026-05-04 20:28 | 45.41153 | -76.22136 | 33672 ft | 406 kts | 249° |
| 2026-05-04 20:29 | 45.38444 | -76.29218 | 33670 ft | 408 kts | 248° |
| 2026-05-04 20:29 | 45.35641 | -76.36221 | 33670 ft | 406 kts | 248° |
| 2026-05-04 20:30 | 45.32877 | -76.43155 | 33671 ft | 405 kts | 248° |
| 2026-05-04 20:30 | 45.30125 | -76.50128 | 33679 ft | 404 kts | 248° |
| 2026-05-04 20:31 | 45.27383 | -76.57094 | 33679 ft | 403 kts | 248° |
| 2026-05-04 20:31 | 45.24644 | -76.64052 | 33682 ft | 404 kts | 248° |
| 2026-05-04 20:32 | 45.21896 | -76.71009 | 33677 ft | 404 kts | 248° |
| 2026-05-04 20:32 | 45.19142 | -76.77970 | 33678 ft | 405 kts | 248° |
| 2026-05-04 20:33 | 45.16351 | -76.84925 | 33684 ft | 406 kts | 247° |
| 2026-05-04 20:33 | 45.13555 | -76.91859 | 33679 ft | 404 kts | 247° |
| 2026-05-04 20:34 | 45.10775 | -76.98760 | 33679 ft | 403 kts | 247° |
| 2026-05-04 20:34 | 45.08003 | -77.05670 | 33679 ft | 404 kts | 247° |
| 2026-05-04 20:35 | 45.05240 | -77.12536 | 33681 ft | 403 kts | 247° |
| 2026-05-04 20:35 | 45.02465 | -77.19430 | 33684 ft | 404 kts | 247° |
| 2026-05-04 20:36 | 44.99682 | -77.26327 | 33683 ft | 403 kts | 247° |
| 2026-05-04 20:36 | 44.96895 | -77.33186 | 33678 ft | 403 kts | 246° |
| 2026-05-04 20:37 | 44.94098 | -77.40003 | 33680 ft | 404 kts | 246° |
| 2026-05-04 20:37 | 44.91281 | -77.46867 | 33672 ft | 404 kts | 246° |
| 2026-05-04 20:38 | 44.88472 | -77.53726 | 33672 ft | 404 kts | 246° |
| 2026-05-04 20:38 | 44.85658 | -77.60594 | 33674 ft | 404 kts | 246° |
| 2026-05-04 20:39 | 44.82844 | -77.67457 | 33665 ft | 404 kts | 246° |
| 2026-05-04 20:39 | 44.80033 | -77.74301 | 33669 ft | 403 kts | 246° |
| 2026-05-04 20:40 | 44.77231 | -77.81125 | 33663 ft | 402 kts | 246° |
| 2026-05-04 20:40 | 44.74438 | -77.87944 | 33668 ft | 403 kts | 246° |
| 2026-05-04 20:41 | 44.71589 | -77.94739 | 33669 ft | 403 kts | 246° |
| 2026-05-04 20:41 | 44.70159 | -77.98163 | 33281 ft | 411 kts | 246° |
| 2026-05-04 20:41 | 44.68729 | -78.01612 | 32726 ft | 414 kts | 245° |
| 2026-05-04 20:42 | 44.67280 | -78.05108 | 32064 ft | 412 kts | 245° |
| 2026-05-04 20:42 | 44.65843 | -78.08577 | 31360 ft | 411 kts | 245° |
| 2026-05-04 20:42 | 44.64407 | -78.12043 | 30651 ft | 410 kts | 245° |
| 2026-05-04 20:42 | 44.62969 | -78.15516 | 29922 ft | 412 kts | 245° |
| 2026-05-04 20:43 | 44.61525 | -78.19002 | 29086 ft | 415 kts | 244° |
| 2026-05-04 20:43 | 44.60068 | -78.22517 | 28266 ft | 418 kts | 244° |
| 2026-05-04 20:43 | 44.58602 | -78.26049 | 27470 ft | 420 kts | 244° |
| 2026-05-04 20:43 | 44.57124 | -78.29604 | 26682 ft | 423 kts | 244° |
| 2026-05-04 20:44 | 44.55631 | -78.33168 | 25858 ft | 423 kts | 243° |
| 2026-05-04 20:44 | 44.54142 | -78.36690 | 25104 ft | 416 kts | 243° |
| 2026-05-04 20:44 | 44.52673 | -78.40154 | 24399 ft | 410 kts | 243° |
| 2026-05-04 20:44 | 44.51228 | -78.43565 | 23712 ft | 405 kts | 243° |
| 2026-05-04 20:45 | 44.49800 | -78.46945 | 22995 ft | 401 kts | 243° |
| 2026-05-04 20:45 | 44.48390 | -78.50284 | 22254 ft | 397 kts | 243° |
| 2026-05-04 20:45 | 44.46992 | -78.53600 | 21559 ft | 393 kts | 243° |
| 2026-05-04 20:45 | 44.45626 | -78.56843 | 20898 ft | 390 kts | 243° |
| 2026-05-04 20:46 | 44.44255 | -78.60099 | 20228 ft | 387 kts | 242° |
| 2026-05-04 20:46 | 44.42891 | -78.63333 | 19589 ft | 384 kts | 242° |
| 2026-05-04 20:46 | 44.41539 | -78.66538 | 18934 ft | 381 kts | 242° |
| 2026-05-04 20:46 | 44.40194 | -78.69717 | 18289 ft | 378 kts | 242° |
| 2026-05-04 20:47 | 44.38860 | -78.72869 | 17615 ft | 375 kts | 242° |
| 2026-05-04 20:47 | 44.37536 | -78.75997 | 16912 ft | 372 kts | 242° |
| 2026-05-04 20:47 | 44.36224 | -78.79099 | 16262 ft | 368 kts | 242° |
| 2026-05-04 20:47 | 44.34920 | -78.82155 | 15619 ft | 365 kts | 241° |
| 2026-05-04 20:48 | 44.33613 | -78.85187 | 14998 ft | 362 kts | 241° |
| 2026-05-04 20:48 | 44.32314 | -78.88193 | 14389 ft | 360 kts | 241° |
| 2026-05-04 20:48 | 44.31031 | -78.91182 | 13765 ft | 357 kts | 241° |
| 2026-05-04 20:48 | 44.29766 | -78.94145 | 13107 ft | 353 kts | 241° |
| 2026-05-04 20:49 | 44.28515 | -78.97076 | 12457 ft | 349 kts | 241° |
| 2026-05-04 20:49 | 44.27292 | -78.99940 | 11858 ft | 345 kts | 241° |
| 2026-05-04 20:49 | 44.26071 | -79.02796 | 11273 ft | 341 kts | 241° |
| 2026-05-04 20:49 | 44.24841 | -79.05591 | 10779 ft | 335 kts | 236° |
| 2026-05-04 20:50 | 44.23369 | -79.08054 | 10528 ft | 324 kts | 230° |
| 2026-05-04 20:50 | 44.21858 | -79.10280 | 10444 ft | 305 kts | 229° |
| 2026-05-04 20:50 | 44.20429 | -79.12352 | 10264 ft | 290 kts | 229° |
| 2026-05-04 20:50 | 44.19057 | -79.14346 | 10102 ft | 279 kts | 230° |
| 2026-05-04 20:51 | 44.17744 | -79.16270 | 9999 ft | 266 kts | 230° |
| 2026-05-04 20:51 | 44.16510 | -79.18093 | 9990 ft | 252 kts | 230° |
| 2026-05-04 20:51 | 44.15726 | -79.19259 | 9986 ft | 247 kts | 231° |
| 2026-05-04 20:51 | 44.14563 | -79.20999 | 9994 ft | 245 kts | 231° |
| 2026-05-04 20:52 | 44.13403 | -79.22745 | 10008 ft | 244 kts | 231° |
| 2026-05-04 20:52 | 44.12277 | -79.24451 | 10002 ft | 236 kts | 231° |
| 2026-05-04 20:52 | 44.11175 | -79.26124 | 9998 ft | 233 kts | 231° |
| 2026-05-04 20:52 | 44.10075 | -79.27791 | 10014 ft | 234 kts | 231° |
| 2026-05-04 20:53 | 44.08973 | -79.29470 | 10020 ft | 234 kts | 231° |
| 2026-05-04 20:53 | 44.07779 | -79.31032 | 10011 ft | 240 kts | 218° |
| 2026-05-04 20:53 | 44.06244 | -79.32005 | 10024 ft | 248 kts | 199° |
| 2026-05-04 20:53 | 44.04502 | -79.32250 | 9985 ft | 255 kts | 186° |
| 2026-05-04 20:54 | 44.02767 | -79.32157 | 9653 ft | 242 kts | 184° |
| 2026-05-04 20:54 | 44.01104 | -79.32007 | 9036 ft | 240 kts | 184° |
| 2026-05-04 20:54 | 43.99442 | -79.31845 | 8383 ft | 239 kts | 184° |
| 2026-05-04 20:54 | 43.97787 | -79.31673 | 7765 ft | 238 kts | 183° |
| 2026-05-04 20:55 | 43.96142 | -79.31490 | 7142 ft | 236 kts | 183° |
| 2026-05-04 20:55 | 43.94512 | -79.31318 | 6548 ft | 234 kts | 183° |
| 2026-05-04 20:55 | 43.92898 | -79.31146 | 5972 ft | 232 kts | 183° |
| 2026-05-04 20:55 | 43.91322 | -79.30992 | 5747 ft | 222 kts | 184° |
| 2026-05-04 20:56 | 43.89806 | -79.30838 | 5623 ft | 215 kts | 184° |
| 2026-05-04 20:56 | 43.88328 | -79.30717 | 5429 ft | 209 kts | 190° |
| 2026-05-04 20:56 | 43.87044 | -79.31304 | 5178 ft | 193 kts | 225° |
| 2026-05-04 20:56 | 43.86148 | -79.32631 | 5013 ft | 186 kts | 231° |
| 2026-05-04 20:57 | 43.85293 | -79.33956 | 4857 ft | 183 kts | 231° |
| 2026-05-04 20:57 | 43.84475 | -79.35231 | 4805 ft | 171 kts | 232° |
| 2026-05-04 20:57 | 43.83761 | -79.36446 | 4504 ft | 157 kts | 232° |
| 2026-05-04 20:57 | 43.83056 | -79.37613 | 3927 ft | 160 kts | 229° |
| 2026-05-04 20:58 | 43.82286 | -79.38747 | 3445 ft | 162 kts | 227° |
| 2026-05-04 20:58 | 43.81554 | -79.39813 | 3261 ft | 147 kts | 226° |
| 2026-05-04 20:58 | 43.80858 | -79.40825 | 3075 ft | 138 kts | 227° |
| 2026-05-04 20:58 | 43.80199 | -79.41786 | 3064 ft | 136 kts | 228° |
| 2026-05-04 20:59 | 43.79546 | -79.42751 | 3102 ft | 133 kts | 226° |
| 2026-05-04 20:59 | 43.78890 | -79.43706 | 3042 ft | 137 kts | 226° |
| 2026-05-04 20:59 | 43.78237 | -79.44667 | 3038 ft | 135 kts | 226° |
| 2026-05-04 20:59 | 43.77580 | -79.45606 | 3035 ft | 135 kts | 227° |
| 2026-05-04 21:00 | 43.76948 | -79.46546 | 3011 ft | 131 kts | 227° |
| 2026-05-04 21:00 | 43.76313 | -79.47447 | 2992 ft | 130 kts | 225° |
| 2026-05-04 21:00 | 43.75690 | -79.48370 | 2763 ft | 131 kts | 226° |
| 2026-05-04 21:00 | 43.75070 | -79.49279 | 2605 ft | 127 kts | 225° |
| 2026-05-04 21:01 | 43.74457 | -79.50181 | 2440 ft | 131 kts | 225° |
| 2026-05-04 21:01 | 43.73828 | -79.51085 | 2314 ft | 130 kts | 225° |
| 2026-05-04 21:01 | 43.73196 | -79.51999 | 2063 ft | 130 kts | 225° |
| 2026-05-04 21:01 | 43.72586 | -79.52905 | 1914 ft | 130 kts | 225° |
| 2026-05-04 21:02 | 43.71960 | -79.53819 | 1698 ft | 131 kts | 224° |
| 2026-05-04 21:02 | 43.71327 | -79.54733 | 1544 ft | 132 kts | 224° |
| 2026-05-04 21:02 | 43.70716 | -79.55625 | 1439 ft | 129 kts | 224° |
| 2026-05-04 21:02 | 43.70100 | -79.56555 | 1275 ft | 129 kts | 223° |
| 2026-05-04 21:03 | 43.69471 | -79.57414 | 1044 ft | 128 kts | 225° |
| 2026-05-04 21:03 | 43.68877 | -79.58304 | 875 ft | 127 kts | 225° |
| 2026-05-04 21:03 | 43.68279 | -79.59202 | 691 ft | 127 kts | 224° |
| 2026-05-04 21:03 | 43.67688 | -79.60067 | 565 ft | 117 kts | 224° |
| 2026-05-04 21:04 | 43.67215 | -79.60729 | 565 ft | 66 kts | 225° |
| 2026-05-04 21:04 | 43.67106 | -79.60884 | 561 ft | 5 kts | 237° |
| 2026-05-04 21:04 | 43.67085 | -79.60968 | 562 ft | 10 kts | 273° |
| 2026-05-04 21:04 | 43.67119 | -79.61054 | 563 ft | 12 kts | 314° |
| 2026-05-04 21:05 | 43.67181 | -79.61143 | 565 ft | 13 kts | 314° |
| 2026-05-04 21:05 | 43.67244 | -79.61234 | 567 ft | 13 kts | 314° |
| 2026-05-04 21:05 | 43.67322 | -79.61299 | 567 ft | 14 kts | 343° |
| 2026-05-04 21:05 | 43.67417 | -79.61291 | 565 ft | 14 kts | 20° |
| 2026-05-04 21:06 | 43.67494 | -79.61253 | 565 ft | 3 kts | 20° |
| 2026-05-04 21:06 | 43.67502 | -79.61254 | 567 ft | 3 kts | 349° |
| 2026-05-04 21:06 | 43.67528 | -79.61273 | 564 ft | 1 kts | 334° |
| 2026-05-04 21:06 | 43.67563 | -79.61268 | 567 ft | 7 kts | 13° |
| 2026-05-04 21:07 | 43.67582 | -79.61262 | 570 ft | 0 kts | 12° |